sensor_id;sensor_type;location;lat;lon;timestamp;temperature;humidity
58809;DHT22;44579;51.672;7.834;2024-03-22T00:00:03;11.30;74.50
58809;DHT22;44579;51.672;7.834;2024-03-22T00:02:38;11.20;74.40
58809;DHT22;44579;51.672;7.834;2024-03-22T00:05:04;11.20;74.50
58809;DHT22;44579;51.672;7.834;2024-03-22T00:07:30;11.20;74.50
58809;DHT22;44579;51.672;7.834;2024-03-22T00:09:57;11.20;74.60
58809;DHT22;44579;51.672;7.834;2024-03-22T00:12:23;11.10;74.50
58809;DHT22;44579;51.672;7.834;2024-03-22T00:14:48;11.10;74.60
58809;DHT22;44579;51.672;7.834;2024-03-22T00:17:17;11.20;74.60
58809;DHT22;44579;51.672;7.834;2024-03-22T00:19:42;11.10;74.60
58809;DHT22;44579;51.672;7.834;2024-03-22T00:22:08;11.10;74.50
58809;DHT22;44579;51.672;7.834;2024-03-22T00:24:34;11.10;74.60
58809;DHT22;44579;51.672;7.834;2024-03-22T00:27:00;11.10;74.60
58809;DHT22;44579;51.672;7.834;2024-03-22T00:29:26;11.10;74.60
58809;DHT22;44579;51.672;7.834;2024-03-22T00:31:52;11.10;74.70
58809;DHT22;44579;51.672;7.834;2024-03-22T00:34:18;11.10;74.60
58809;DHT22;44579;51.672;7.834;2024-03-22T00:36:45;11.10;74.70
58809;DHT22;44579;51.672;7.834;2024-03-22T00:39:11;11.10;74.70
58809;DHT22;44579;51.672;7.834;2024-03-22T00:41:38;11.20;74.70
58809;DHT22;44579;51.672;7.834;2024-03-22T00:44:04;11.20;74.70
58809;DHT22;44579;51.672;7.834;2024-03-22T00:46:30;11.20;74.60
58809;DHT22;44579;51.672;7.834;2024-03-22T00:48:57;11.30;74.60
58809;DHT22;44579;51.672;7.834;2024-03-22T00:51:25;11.30;74.60
58809;DHT22;44579;51.672;7.834;2024-03-22T00:53:51;11.20;74.60
58809;DHT22;44579;51.672;7.834;2024-03-22T00:56:17;11.20;74.80
58809;DHT22;44579;51.672;7.834;2024-03-22T00:58:43;11.20;74.80
58809;DHT22;44579;51.672;7.834;2024-03-22T01:01:09;11.20;74.80
58809;DHT22;44579;51.672;7.834;2024-03-22T01:03:35;11.20;74.90
58809;DHT22;44579;51.672;7.834;2024-03-22T01:06:01;11.20;74.90
58809;DHT22;44579;51.672;7.834;2024-03-22T01:08:27;11.20;75.00
58809;DHT22;44579;51.672;7.834;2024-03-22T01:10:53;11.20;75.10
58809;DHT22;44579;51.672;7.834;2024-03-22T01:13:19;11.20;75.10
58809;DHT22;44579;51.672;7.834;2024-03-22T01:15:45;11.20;75.10
58809;DHT22;44579;51.672;7.834;2024-03-22T01:18:11;11.20;75.00
58809;DHT22;44579;51.672;7.834;2024-03-22T01:20:37;11.20;75.00
58809;DHT22;44579;51.672;7.834;2024-03-22T01:23:03;11.20;75.00
58809;DHT22;44579;51.672;7.834;2024-03-22T01:25:30;11.20;75.00
58809;DHT22;44579;51.672;7.834;2024-03-22T01:27:56;11.30;75.10
58809;DHT22;44579;51.672;7.834;2024-03-22T01:30:22;11.30;75.00
58809;DHT22;44579;51.672;7.834;2024-03-22T01:32:48;11.30;75.00
58809;DHT22;44579;51.672;7.834;2024-03-22T01:35:14;11.30;75.00
58809;DHT22;44579;51.672;7.834;2024-03-22T01:37:40;11.30;75.00
58809;DHT22;44579;51.672;7.834;2024-03-22T01:40:07;11.30;75.00
58809;DHT22;44579;51.672;7.834;2024-03-22T01:42:33;11.30;75.10
58809;DHT22;44579;51.672;7.834;2024-03-22T01:44:59;11.30;75.00
58809;DHT22;44579;51.672;7.834;2024-03-22T01:47:25;11.30;75.00
58809;DHT22;44579;51.672;7.834;2024-03-22T01:52:20;11.30;75.00
58809;DHT22;44579;51.672;7.834;2024-03-22T01:54:46;11.30;75.10
58809;DHT22;44579;51.672;7.834;2024-03-22T01:57:12;11.30;75.10
58809;DHT22;44579;51.672;7.834;2024-03-22T01:59:38;11.30;75.10
58809;DHT22;44579;51.672;7.834;2024-03-22T02:02:04;11.30;75.20
58809;DHT22;44579;51.672;7.834;2024-03-22T02:04:30;11.30;75.30
58809;DHT22;44579;51.672;7.834;2024-03-22T02:06:56;11.30;75.40
58809;DHT22;44579;51.672;7.834;2024-03-22T02:09:23;11.20;75.30
58809;DHT22;44579;51.672;7.834;2024-03-22T02:11:49;11.30;75.40
58809;DHT22;44579;51.672;7.834;2024-03-22T02:14:15;11.30;75.40
58809;DHT22;44579;51.672;7.834;2024-03-22T02:16:41;11.20;75.30
58809;DHT22;44579;51.672;7.834;2024-03-22T02:19:07;11.30;75.50
58809;DHT22;44579;51.672;7.834;2024-03-22T02:21:33;11.30;75.50
58809;DHT22;44579;51.672;7.834;2024-03-22T02:23:59;11.30;75.50
58809;DHT22;44579;51.672;7.834;2024-03-22T02:26:25;11.20;75.40
58809;DHT22;44579;51.672;7.834;2024-03-22T02:28:50;11.30;75.50
58809;DHT22;44579;51.672;7.834;2024-03-22T02:31:16;11.30;75.40
58809;DHT22;44579;51.672;7.834;2024-03-22T02:33:42;11.30;75.40
58809;DHT22;44579;51.672;7.834;2024-03-22T02:36:08;11.30;75.40
58809;DHT22;44579;51.672;7.834;2024-03-22T02:38:34;11.30;75.40
58809;DHT22;44579;51.672;7.834;2024-03-22T02:41:00;11.30;75.40
58809;DHT22;44579;51.672;7.834;2024-03-22T02:43:26;11.40;75.50
58809;DHT22;44579;51.672;7.834;2024-03-22T02:45:52;11.40;75.50
58809;DHT22;44579;51.672;7.834;2024-03-22T02:48:18;11.40;75.50
58809;DHT22;44579;51.672;7.834;2024-03-22T02:50:43;11.40;75.40
58809;DHT22;44579;51.672;7.834;2024-03-22T02:53:09;11.40;75.40
58809;DHT22;44579;51.672;7.834;2024-03-22T02:55:36;11.40;75.40
58809;DHT22;44579;51.672;7.834;2024-03-22T02:58:03;11.40;75.50
58809;DHT22;44579;51.672;7.834;2024-03-22T03:00:29;11.40;75.40
58809;DHT22;44579;51.672;7.834;2024-03-22T03:02:54;11.40;75.40
58809;DHT22;44579;51.672;7.834;2024-03-22T03:05:20;11.50;75.50
58809;DHT22;44579;51.672;7.834;2024-03-22T03:07:48;11.40;75.40
58809;DHT22;44579;51.672;7.834;2024-03-22T03:10:14;11.40;75.40
58809;DHT22;44579;51.672;7.834;2024-03-22T03:12:40;11.50;75.50
58809;DHT22;44579;51.672;7.834;2024-03-22T03:15:06;11.40;75.50
58809;DHT22;44579;51.672;7.834;2024-03-22T03:17:32;11.40;75.50
58809;DHT22;44579;51.672;7.834;2024-03-22T03:19:58;11.40;75.50
58809;DHT22;44579;51.672;7.834;2024-03-22T03:22:23;11.40;75.50
58809;DHT22;44579;51.672;7.834;2024-03-22T03:24:49;11.40;75.80
58809;DHT22;44579;51.672;7.834;2024-03-22T03:27:15;11.40;75.50
58809;DHT22;44579;51.672;7.834;2024-03-22T03:29:41;11.40;75.60
58809;DHT22;44579;51.672;7.834;2024-03-22T03:32:06;11.40;75.60
58809;DHT22;44579;51.672;7.834;2024-03-22T03:34:32;11.40;75.60
58809;DHT22;44579;51.672;7.834;2024-03-22T03:36:58;11.50;75.70
58809;DHT22;44579;51.672;7.834;2024-03-22T03:39:27;11.50;75.80
58809;DHT22;44579;51.672;7.834;2024-03-22T03:41:52;11.50;75.70
58809;DHT22;44579;51.672;7.834;2024-03-22T03:44:18;11.50;75.70
58809;DHT22;44579;51.672;7.834;2024-03-22T03:46:44;11.50;75.70
58809;DHT22;44579;51.672;7.834;2024-03-22T03:49:10;11.50;75.70
58809;DHT22;44579;51.672;7.834;2024-03-22T03:51:36;11.50;75.80
58809;DHT22;44579;51.672;7.834;2024-03-22T03:54:02;11.50;75.80
58809;DHT22;44579;51.672;7.834;2024-03-22T03:56:27;11.60;75.90
58809;DHT22;44579;51.672;7.834;2024-03-22T03:58:53;11.60;75.90
58809;DHT22;44579;51.672;7.834;2024-03-22T04:01:19;11.50;75.90
58809;DHT22;44579;51.672;7.834;2024-03-22T04:03:45;11.50;75.90
58809;DHT22;44579;51.672;7.834;2024-03-22T04:06:11;11.50;75.90
58809;DHT22;44579;51.672;7.834;2024-03-22T04:08:37;11.50;76.00
58809;DHT22;44579;51.672;7.834;2024-03-22T04:11:03;11.50;76.00
58809;DHT22;44579;51.672;7.834;2024-03-22T04:13:30;11.50;76.00
58809;DHT22;44579;51.672;7.834;2024-03-22T04:15:58;11.50;76.00
58809;DHT22;44579;51.672;7.834;2024-03-22T04:18:24;11.50;76.00
58809;DHT22;44579;51.672;7.834;2024-03-22T04:20:54;11.50;76.10
58809;DHT22;44579;51.672;7.834;2024-03-22T04:23:20;11.50;76.10
58809;DHT22;44579;51.672;7.834;2024-03-22T04:25:55;11.40;76.10
58809;DHT22;44579;51.672;7.834;2024-03-22T04:28:21;11.50;76.20
58809;DHT22;44579;51.672;7.834;2024-03-22T04:30:56;11.40;76.10
58809;DHT22;44579;51.672;7.834;2024-03-22T04:33:21;11.40;76.20
58809;DHT22;44579;51.672;7.834;2024-03-22T04:35:47;11.40;76.20
58809;DHT22;44579;51.672;7.834;2024-03-22T04:38:13;11.40;76.20
58809;DHT22;44579;51.672;7.834;2024-03-22T04:40:39;11.30;76.20
58809;DHT22;44579;51.672;7.834;2024-03-22T04:43:05;11.40;76.30
58809;DHT22;44579;51.672;7.834;2024-03-22T04:45:31;11.40;76.30
58809;DHT22;44579;51.672;7.834;2024-03-22T04:47:56;11.30;76.30
58809;DHT22;44579;51.672;7.834;2024-03-22T04:50:22;11.40;76.40
58809;DHT22;44579;51.672;7.834;2024-03-22T04:52:48;11.30;76.30
58809;DHT22;44579;51.672;7.834;2024-03-22T04:55:15;11.30;76.40
58809;DHT22;44579;51.672;7.834;2024-03-22T04:57:41;11.30;76.30
58809;DHT22;44579;51.672;7.834;2024-03-22T05:00:07;11.30;76.40
58809;DHT22;44579;51.672;7.834;2024-03-22T05:02:34;11.30;76.40
58809;DHT22;44579;51.672;7.834;2024-03-22T05:05:00;11.30;76.40
58809;DHT22;44579;51.672;7.834;2024-03-22T05:07:26;11.40;76.50
58809;DHT22;44579;51.672;7.834;2024-03-22T05:09:51;11.40;76.50
58809;DHT22;44579;51.672;7.834;2024-03-22T05:12:17;11.40;76.50
58809;DHT22;44579;51.672;7.834;2024-03-22T05:14:43;11.40;76.60
58809;DHT22;44579;51.672;7.834;2024-03-22T05:17:09;11.40;76.60
58809;DHT22;44579;51.672;7.834;2024-03-22T05:19:35;11.40;76.60
58809;DHT22;44579;51.672;7.834;2024-03-22T05:22:01;11.40;76.60
58809;DHT22;44579;51.672;7.834;2024-03-22T05:24:28;11.40;76.60
58809;DHT22;44579;51.672;7.834;2024-03-22T05:26:54;11.40;76.60
58809;DHT22;44579;51.672;7.834;2024-03-22T05:29:20;11.40;76.60
58809;DHT22;44579;51.672;7.834;2024-03-22T05:31:47;11.50;76.60
58809;DHT22;44579;51.672;7.834;2024-03-22T05:34:14;11.50;76.60
58809;DHT22;44579;51.672;7.834;2024-03-22T05:36:40;11.50;76.60
58809;DHT22;44579;51.672;7.834;2024-03-22T05:39:06;11.50;76.60
58809;DHT22;44579;51.672;7.834;2024-03-22T05:41:32;11.50;76.60
58809;DHT22;44579;51.672;7.834;2024-03-22T05:44:01;11.50;76.70
58809;DHT22;44579;51.672;7.834;2024-03-22T05:46:27;11.50;76.60
58809;DHT22;44579;51.672;7.834;2024-03-22T05:48:53;11.60;76.70
58809;DHT22;44579;51.672;7.834;2024-03-22T05:51:18;11.60;76.70
58809;DHT22;44579;51.672;7.834;2024-03-22T05:53:44;11.60;76.70
58809;DHT22;44579;51.672;7.834;2024-03-22T05:56:10;11.60;76.70
58809;DHT22;44579;51.672;7.834;2024-03-22T05:58:36;11.60;76.70
58809;DHT22;44579;51.672;7.834;2024-03-22T06:01:03;11.70;76.80
58809;DHT22;44579;51.672;7.834;2024-03-22T06:03:29;11.70;76.80
58809;DHT22;44579;51.672;7.834;2024-03-22T06:05:55;11.70;76.80
58809;DHT22;44579;51.672;7.834;2024-03-22T06:08:25;11.70;76.80
58809;DHT22;44579;51.672;7.834;2024-03-22T06:10:54;11.80;76.90
58809;DHT22;44579;51.672;7.834;2024-03-22T06:13:21;11.80;76.90
58809;DHT22;44579;51.672;7.834;2024-03-22T06:15:48;11.90;77.00
58809;DHT22;44579;51.672;7.834;2024-03-22T06:18:15;11.90;77.00
58809;DHT22;44579;51.672;7.834;2024-03-22T06:20:41;11.90;77.00
58809;DHT22;44579;51.672;7.834;2024-03-22T06:23:08;12.00;77.10
58809;DHT22;44579;51.672;7.834;2024-03-22T06:25:35;12.00;77.20
58809;DHT22;44579;51.672;7.834;2024-03-22T06:28:02;12.10;77.20
58809;DHT22;44579;51.672;7.834;2024-03-22T06:30:28;12.10;77.20
58809;DHT22;44579;51.672;7.834;2024-03-22T06:32:54;12.10;77.30
58809;DHT22;44579;51.672;7.834;2024-03-22T06:35:23;12.20;77.30
58809;DHT22;44579;51.672;7.834;2024-03-22T06:37:49;12.20;77.40
58809;DHT22;44579;51.672;7.834;2024-03-22T06:40:16;12.20;77.40
58809;DHT22;44579;51.672;7.834;2024-03-22T06:42:42;12.30;77.60
58809;DHT22;44579;51.672;7.834;2024-03-22T06:45:07;12.30;77.60
58809;DHT22;44579;51.672;7.834;2024-03-22T06:47:33;12.30;77.60
58809;DHT22;44579;51.672;7.834;2024-03-22T06:49:59;12.40;77.70
58809;DHT22;44579;51.672;7.834;2024-03-22T06:52:25;12.40;77.60
58809;DHT22;44579;51.672;7.834;2024-03-22T06:54:51;12.40;77.70
58809;DHT22;44579;51.672;7.834;2024-03-22T06:57:19;12.40;77.80
58809;DHT22;44579;51.672;7.834;2024-03-22T06:59:44;12.40;77.80
58809;DHT22;44579;51.672;7.834;2024-03-22T07:02:10;12.50;77.80
58809;DHT22;44579;51.672;7.834;2024-03-22T07:04:36;12.50;77.80
58809;DHT22;44579;51.672;7.834;2024-03-22T07:07:02;12.50;77.80
58809;DHT22;44579;51.672;7.834;2024-03-22T07:09:28;12.60;77.90
58809;DHT22;44579;51.672;7.834;2024-03-22T07:11:55;12.70;78.00
58809;DHT22;44579;51.672;7.834;2024-03-22T07:14:21;12.70;78.00
58809;DHT22;44579;51.672;7.834;2024-03-22T07:16:50;12.70;78.00
58809;DHT22;44579;51.672;7.834;2024-03-22T07:19:16;12.70;78.00
58809;DHT22;44579;51.672;7.834;2024-03-22T07:21:42;12.80;78.10
58809;DHT22;44579;51.672;7.834;2024-03-22T07:24:08;12.90;78.10
58809;DHT22;44579;51.672;7.834;2024-03-22T07:26:34;12.90;78.20
58809;DHT22;44579;51.672;7.834;2024-03-22T07:29:05;12.90;78.10
58809;DHT22;44579;51.672;7.834;2024-03-22T07:31:31;13.00;78.20
58809;DHT22;44579;51.672;7.834;2024-03-22T07:33:57;13.00;78.20
58809;DHT22;44579;51.672;7.834;2024-03-22T07:36:23;13.10;78.40
58809;DHT22;44579;51.672;7.834;2024-03-22T07:38:49;13.10;78.50
58809;DHT22;44579;51.672;7.834;2024-03-22T07:41:15;13.10;79.40
58809;DHT22;44579;51.672;7.834;2024-03-22T07:43:41;13.10;78.70
58809;DHT22;44579;51.672;7.834;2024-03-22T07:46:06;13.20;78.90
58809;DHT22;44579;51.672;7.834;2024-03-22T07:48:33;13.20;78.90
58809;DHT22;44579;51.672;7.834;2024-03-22T07:50:59;13.20;78.90
58809;DHT22;44579;51.672;7.834;2024-03-22T07:53:25;13.30;79.10
58809;DHT22;44579;51.672;7.834;2024-03-22T07:55:51;13.30;79.10
58809;DHT22;44579;51.672;7.834;2024-03-22T07:58:17;13.40;79.20
58809;DHT22;44579;51.672;7.834;2024-03-22T08:00:43;13.40;79.30
58809;DHT22;44579;51.672;7.834;2024-03-22T08:03:13;13.50;79.40
58809;DHT22;44579;51.672;7.834;2024-03-22T08:05:40;13.50;79.60
58809;DHT22;44579;51.672;7.834;2024-03-22T08:08:06;13.60;79.70
58809;DHT22;44579;51.672;7.834;2024-03-22T08:10:32;13.60;79.70
58809;DHT22;44579;51.672;7.834;2024-03-22T08:12:58;13.70;79.90
58809;DHT22;44579;51.672;7.834;2024-03-22T08:15:24;13.80;80.00
58809;DHT22;44579;51.672;7.834;2024-03-22T08:17:50;13.80;80.10
58809;DHT22;44579;51.672;7.834;2024-03-22T08:20:16;13.90;80.10
58809;DHT22;44579;51.672;7.834;2024-03-22T08:22:42;14.00;80.10
58809;DHT22;44579;51.672;7.834;2024-03-22T08:25:08;14.00;80.20
58809;DHT22;44579;51.672;7.834;2024-03-22T08:27:34;14.10;80.40
58809;DHT22;44579;51.672;7.834;2024-03-22T08:30:00;14.20;80.50
58809;DHT22;44579;51.672;7.834;2024-03-22T08:32:26;14.30;80.90
58809;DHT22;44579;51.672;7.834;2024-03-22T08:34:52;14.40;81.10
58809;DHT22;44579;51.672;7.834;2024-03-22T08:37:18;14.40;81.00
58809;DHT22;44579;51.672;7.834;2024-03-22T08:39:44;14.50;81.00
58809;DHT22;44579;51.672;7.834;2024-03-22T08:42:10;14.60;81.10
58809;DHT22;44579;51.672;7.834;2024-03-22T08:44:36;14.60;81.70
58809;DHT22;44579;51.672;7.834;2024-03-22T08:47:02;14.60;81.90
58809;DHT22;44579;51.672;7.834;2024-03-22T08:49:29;14.50;82.00
58809;DHT22;44579;51.672;7.834;2024-03-22T08:51:55;14.50;82.20
58809;DHT22;44579;51.672;7.834;2024-03-22T08:54:21;14.50;82.20
58809;DHT22;44579;51.672;7.834;2024-03-22T08:56:47;14.50;82.20
58809;DHT22;44579;51.672;7.834;2024-03-22T08:59:13;14.50;82.20
58809;DHT22;44579;51.672;7.834;2024-03-22T09:01:39;14.40;82.20
58809;DHT22;44579;51.672;7.834;2024-03-22T09:04:05;14.40;82.40
58809;DHT22;44579;51.672;7.834;2024-03-22T09:06:31;14.40;82.40
58809;DHT22;44579;51.672;7.834;2024-03-22T09:09:00;14.40;82.50
58809;DHT22;44579;51.672;7.834;2024-03-22T09:11:26;14.50;82.50
58809;DHT22;44579;51.672;7.834;2024-03-22T09:13:52;14.60;82.60
58809;DHT22;44579;51.672;7.834;2024-03-22T09:16:19;14.70;82.50
58809;DHT22;44579;51.672;7.834;2024-03-22T09:18:45;14.80;82.40
58809;DHT22;44579;51.672;7.834;2024-03-22T09:21:11;14.90;82.60
58809;DHT22;44579;51.672;7.834;2024-03-22T09:23:37;14.90;82.70
58809;DHT22;44579;51.672;7.834;2024-03-22T09:26:03;15.00;82.90
58809;DHT22;44579;51.672;7.834;2024-03-22T09:28:29;15.00;82.90
58809;DHT22;44579;51.672;7.834;2024-03-22T09:30:55;15.00;83.00
58809;DHT22;44579;51.672;7.834;2024-03-22T09:33:22;15.00;83.10
58809;DHT22;44579;51.672;7.834;2024-03-22T09:35:48;15.10;83.00
58809;DHT22;44579;51.672;7.834;2024-03-22T09:38:13;15.00;82.80
58809;DHT22;44579;51.672;7.834;2024-03-22T09:40:41;15.10;83.20
58809;DHT22;44579;51.672;7.834;2024-03-22T09:43:07;15.10;83.10
58809;DHT22;44579;51.672;7.834;2024-03-22T09:45:33;15.10;83.10
58809;DHT22;44579;51.672;7.834;2024-03-22T09:47:59;15.20;83.00
58809;DHT22;44579;51.672;7.834;2024-03-22T09:50:26;15.30;83.10
58809;DHT22;44579;51.672;7.834;2024-03-22T09:52:52;15.30;83.00
58809;DHT22;44579;51.672;7.834;2024-03-22T09:55:24;15.30;83.80
58809;DHT22;44579;51.672;7.834;2024-03-22T09:57:50;15.40;83.00
58809;DHT22;44579;51.672;7.834;2024-03-22T10:00:20;15.40;82.90
58809;DHT22;44579;51.672;7.834;2024-03-22T10:02:47;15.40;82.60
58809;DHT22;44579;51.672;7.834;2024-03-22T10:05:14;15.50;82.70
58809;DHT22;44579;51.672;7.834;2024-03-22T10:07:40;15.40;82.60
58809;DHT22;44579;51.672;7.834;2024-03-22T10:10:07;15.40;82.40
58809;DHT22;44579;51.672;7.834;2024-03-22T10:12:33;15.50;82.40
58809;DHT22;44579;51.672;7.834;2024-03-22T10:14:59;15.60;82.40
58809;DHT22;44579;51.672;7.834;2024-03-22T10:17:28;15.60;82.20
58809;DHT22;44579;51.672;7.834;2024-03-22T10:19:54;15.60;82.10
58809;DHT22;44579;51.672;7.834;2024-03-22T10:22:20;15.60;82.00
58809;DHT22;44579;51.672;7.834;2024-03-22T10:24:46;15.60;82.00
58809;DHT22;44579;51.672;7.834;2024-03-22T10:27:12;15.60;81.80
58809;DHT22;44579;51.672;7.834;2024-03-22T10:29:39;15.70;81.70
58809;DHT22;44579;51.672;7.834;2024-03-22T10:32:05;15.70;81.50
58809;DHT22;44579;51.672;7.834;2024-03-22T10:34:32;15.90;81.50
58809;DHT22;44579;51.672;7.834;2024-03-22T10:37:01;15.90;81.30
58809;DHT22;44579;51.672;7.834;2024-03-22T10:39:28;16.10;81.30
58809;DHT22;44579;51.672;7.834;2024-03-22T10:41:54;16.20;81.10
58809;DHT22;44579;51.672;7.834;2024-03-22T10:44:20;16.30;81.00
58809;DHT22;44579;51.672;7.834;2024-03-22T10:46:49;16.30;81.10
58809;DHT22;44579;51.672;7.834;2024-03-22T10:49:16;16.40;81.20
58809;DHT22;44579;51.672;7.834;2024-03-22T10:51:53;16.40;81.20
58809;DHT22;44579;51.672;7.834;2024-03-22T10:54:24;16.50;81.30
58809;DHT22;44579;51.672;7.834;2024-03-22T10:56:55;16.50;81.50
58809;DHT22;44579;51.672;7.834;2024-03-22T10:59:22;16.60;81.50
58809;DHT22;44579;51.672;7.834;2024-03-22T11:01:49;16.50;81.30
58809;DHT22;44579;51.672;7.834;2024-03-22T11:04:16;16.60;81.40
58809;DHT22;44579;51.672;7.834;2024-03-22T11:06:47;16.60;81.30
58809;DHT22;44579;51.672;7.834;2024-03-22T11:09:18;16.60;81.10
58809;DHT22;44579;51.672;7.834;2024-03-22T11:11:44;16.60;81.20
58809;DHT22;44579;51.672;7.834;2024-03-22T11:14:10;16.60;81.20
58809;DHT22;44579;51.672;7.834;2024-03-22T11:16:36;16.60;81.20
58809;DHT22;44579;51.672;7.834;2024-03-22T11:19:02;16.60;81.00
58809;DHT22;44579;51.672;7.834;2024-03-22T11:21:28;16.60;81.00
58809;DHT22;44579;51.672;7.834;2024-03-22T11:23:56;16.60;80.90
58809;DHT22;44579;51.672;7.834;2024-03-22T11:26:22;16.60;80.80
58809;DHT22;44579;51.672;7.834;2024-03-22T11:28:48;16.60;80.70
58809;DHT22;44579;51.672;7.834;2024-03-22T11:31:14;16.60;80.50
58809;DHT22;44579;51.672;7.834;2024-03-22T11:33:39;16.60;80.40
58809;DHT22;44579;51.672;7.834;2024-03-22T11:36:05;16.50;80.10
58809;DHT22;44579;51.672;7.834;2024-03-22T11:38:31;16.60;80.00
58809;DHT22;44579;51.672;7.834;2024-03-22T11:40:57;16.60;79.60
58809;DHT22;44579;51.672;7.834;2024-03-22T11:43:23;16.70;79.40
58809;DHT22;44579;51.672;7.834;2024-03-22T11:45:51;16.80;79.30
58809;DHT22;44579;51.672;7.834;2024-03-22T11:48:17;16.80;79.20
58809;DHT22;44579;51.672;7.834;2024-03-22T11:50:43;16.70;78.80
58809;DHT22;44579;51.672;7.834;2024-03-22T11:53:09;16.70;78.60
58809;DHT22;44579;51.672;7.834;2024-03-22T11:55:35;16.60;78.50
58809;DHT22;44579;51.672;7.834;2024-03-22T11:58:01;16.50;78.10
58809;DHT22;44579;51.672;7.834;2024-03-22T12:00:27;16.40;78.00
58809;DHT22;44579;51.672;7.834;2024-03-22T12:02:53;16.40;78.10
58809;DHT22;44579;51.672;7.834;2024-03-22T12:05:22;16.40;78.10
58809;DHT22;44579;51.672;7.834;2024-03-22T12:07:48;16.30;77.90
58809;DHT22;44579;51.672;7.834;2024-03-22T12:10:17;16.20;78.00
58809;DHT22;44579;51.672;7.834;2024-03-22T12:12:43;16.20;77.90
58809;DHT22;44579;51.672;7.834;2024-03-22T12:15:09;16.10;77.90
58809;DHT22;44579;51.672;7.834;2024-03-22T12:17:34;16.00;77.80
58809;DHT22;44579;51.672;7.834;2024-03-22T12:20:02;15.90;77.70
58809;DHT22;44579;51.672;7.834;2024-03-22T12:22:30;15.90;77.60
58809;DHT22;44579;51.672;7.834;2024-03-22T12:24:56;15.70;77.60
58809;DHT22;44579;51.672;7.834;2024-03-22T12:27:22;15.70;77.30
58809;DHT22;44579;51.672;7.834;2024-03-22T12:29:48;15.60;76.90
58809;DHT22;44579;51.672;7.834;2024-03-22T12:32:14;15.30;76.30
58809;DHT22;44579;51.672;7.834;2024-03-22T12:34:40;15.10;76.50
58809;DHT22;44579;51.672;7.834;2024-03-22T12:37:06;14.90;76.90
58809;DHT22;44579;51.672;7.834;2024-03-22T12:39:32;14.90;77.40
58809;DHT22;44579;51.672;7.834;2024-03-22T12:41:58;14.80;77.40
58809;DHT22;44579;51.672;7.834;2024-03-22T12:44:27;14.80;77.30
58809;DHT22;44579;51.672;7.834;2024-03-22T12:46:53;14.80;77.40
58809;DHT22;44579;51.672;7.834;2024-03-22T12:49:20;14.80;77.40
58809;DHT22;44579;51.672;7.834;2024-03-22T12:51:46;14.70;77.40
58809;DHT22;44579;51.672;7.834;2024-03-22T12:54:12;14.70;77.60
58809;DHT22;44579;51.672;7.834;2024-03-22T12:56:40;14.70;77.50
58809;DHT22;44579;51.672;7.834;2024-03-22T12:59:06;14.60;77.40
58809;DHT22;44579;51.672;7.834;2024-03-22T13:01:33;14.60;77.60
58809;DHT22;44579;51.672;7.834;2024-03-22T13:03:59;14.60;77.60
58809;DHT22;44579;51.672;7.834;2024-03-22T13:06:25;14.40;77.80
58809;DHT22;44579;51.672;7.834;2024-03-22T13:08:51;14.30;78.10
58809;DHT22;44579;51.672;7.834;2024-03-22T13:11:17;14.20;78.50
58809;DHT22;44579;51.672;7.834;2024-03-22T13:13:43;14.10;78.80
58809;DHT22;44579;51.672;7.834;2024-03-22T13:16:09;14.10;79.00
58809;DHT22;44579;51.672;7.834;2024-03-22T13:18:37;14.00;79.20
58809;DHT22;44579;51.672;7.834;2024-03-22T13:21:03;14.00;79.40
58809;DHT22;44579;51.672;7.834;2024-03-22T13:23:31;14.00;79.40
58809;DHT22;44579;51.672;7.834;2024-03-22T13:25:57;14.00;79.30
58809;DHT22;44579;51.672;7.834;2024-03-22T13:28:29;14.10;79.10
58809;DHT22;44579;51.672;7.834;2024-03-22T13:31:01;14.10;79.10
58809;DHT22;44579;51.672;7.834;2024-03-22T13:33:33;14.10;78.90
58809;DHT22;44579;51.672;7.834;2024-03-22T13:35:59;14.10;78.80
58809;DHT22;44579;51.672;7.834;2024-03-22T13:38:25;14.20;78.80
58809;DHT22;44579;51.672;7.834;2024-03-22T13:40:55;14.20;78.60
58809;DHT22;44579;51.672;7.834;2024-03-22T13:43:21;14.20;78.60
58809;DHT22;44579;51.672;7.834;2024-03-22T13:45:49;14.20;78.60
58809;DHT22;44579;51.672;7.834;2024-03-22T13:48:16;14.10;78.90
58809;DHT22;44579;51.672;7.834;2024-03-22T13:50:42;14.10;79.20
58809;DHT22;44579;51.672;7.834;2024-03-22T13:53:09;14.10;79.20
58809;DHT22;44579;51.672;7.834;2024-03-22T13:55:35;14.10;79.10
58809;DHT22;44579;51.672;7.834;2024-03-22T13:58:01;14.20;78.90
58809;DHT22;44579;51.672;7.834;2024-03-22T14:00:27;14.20;78.80
58809;DHT22;44579;51.672;7.834;2024-03-22T14:02:53;14.10;78.70
58809;DHT22;44579;51.672;7.834;2024-03-22T14:05:21;14.10;78.70
58809;DHT22;44579;51.672;7.834;2024-03-22T14:07:47;14.10;78.60
58809;DHT22;44579;51.672;7.834;2024-03-22T14:10:12;14.10;78.40
58809;DHT22;44579;51.672;7.834;2024-03-22T14:12:42;14.00;78.50
58809;DHT22;44579;51.672;7.834;2024-03-22T14:15:08;13.90;78.80
58809;DHT22;44579;51.672;7.834;2024-03-22T14:17:34;13.80;79.20
58809;DHT22;44579;51.672;7.834;2024-03-22T14:20:00;13.80;79.40
58809;DHT22;44579;51.672;7.834;2024-03-22T14:22:26;13.60;79.50
58809;DHT22;44579;51.672;7.834;2024-03-22T14:24:52;13.60;79.60
58809;DHT22;44579;51.672;7.834;2024-03-22T14:27:18;13.60;79.30
58809;DHT22;44579;51.672;7.834;2024-03-22T14:29:45;13.50;80.30
58809;DHT22;44579;51.672;7.834;2024-03-22T14:32:12;13.50;79.30
58809;DHT22;44579;51.672;7.834;2024-03-22T14:34:38;13.40;79.20
58809;DHT22;44579;51.672;7.834;2024-03-22T14:37:06;13.40;79.20
58809;DHT22;44579;51.672;7.834;2024-03-22T14:39:32;13.30;79.20
58809;DHT22;44579;51.672;7.834;2024-03-22T14:41:59;13.30;79.20
58809;DHT22;44579;51.672;7.834;2024-03-22T14:44:24;13.30;79.20
58809;DHT22;44579;51.672;7.834;2024-03-22T14:46:51;13.30;78.90
58809;DHT22;44579;51.672;7.834;2024-03-22T14:49:16;13.30;78.90
58809;DHT22;44579;51.672;7.834;2024-03-22T14:51:42;13.20;79.00
58809;DHT22;44579;51.672;7.834;2024-03-22T14:54:08;13.20;78.90
58809;DHT22;44579;51.672;7.834;2024-03-22T14:56:34;13.20;79.40
58809;DHT22;44579;51.672;7.834;2024-03-22T14:59:00;13.10;80.80
58809;DHT22;44579;51.672;7.834;2024-03-22T15:01:31;13.00;82.00
58809;DHT22;44579;51.672;7.834;2024-03-22T15:03:57;12.90;81.80
58809;DHT22;44579;51.672;7.834;2024-03-22T15:06:23;12.80;81.50
58809;DHT22;44579;51.672;7.834;2024-03-22T15:08:48;12.80;81.30
58809;DHT22;44579;51.672;7.834;2024-03-22T15:11:14;12.80;80.80
58809;DHT22;44579;51.672;7.834;2024-03-22T15:13:40;12.70;80.40
58809;DHT22;44579;51.672;7.834;2024-03-22T15:16:06;12.70;80.40
58809;DHT22;44579;51.672;7.834;2024-03-22T15:18:32;12.70;80.30
58809;DHT22;44579;51.672;7.834;2024-03-22T15:20:58;12.80;80.00
58809;DHT22;44579;51.672;7.834;2024-03-22T15:23:24;12.80;79.60
58809;DHT22;44579;51.672;7.834;2024-03-22T15:25:50;12.80;79.40